createdAt,value
2023-03-08T00:02:17.719Z,1.50
2023-03-08T00:07:21.038Z,1.50
2023-03-08T00:12:25.678Z,1.40
2023-03-08T00:17:28.981Z,1.40
2023-03-08T00:22:32.237Z,1.40
2023-03-08T00:27:37.579Z,1.40
2023-03-08T00:32:40.836Z,1.40
2023-03-08T00:37:44.135Z,1.50
2023-03-08T00:42:48.760Z,1.50
2023-03-08T00:47:51.944Z,1.60
2023-03-08T00:52:55.201Z,1.60
2023-03-08T00:57:59.790Z,1.70
2023-03-08T01:03:03.867Z,1.70
2023-03-08T01:08:07.210Z,1.60
2023-03-08T01:13:11.803Z,1.70
2023-03-08T01:18:15.266Z,1.70
2023-03-08T01:23:18.526Z,1.70
2023-03-08T01:28:23.277Z,1.60
2023-03-08T01:33:26.692Z,1.60
2023-03-08T01:38:30.043Z,1.60
2023-03-08T01:43:36.918Z,1.60
2023-03-08T01:48:45.650Z,1.60
2023-03-08T01:53:55.549Z,1.60
2023-03-08T01:59:01.624Z,1.60
2023-03-08T02:04:05.028Z,1.60
2023-03-08T02:09:10.071Z,1.60
2023-03-08T02:14:14.744Z,1.70
2023-03-08T02:19:26.233Z,1.70
2023-03-08T02:24:30.882Z,1.70
2023-03-08T02:29:34.211Z,1.60
2023-03-08T02:34:37.526Z,1.60
2023-03-08T02:39:42.194Z,1.60
2023-03-08T02:44:45.411Z,1.60
2023-03-08T02:49:48.601Z,1.50
2023-03-08T02:54:53.867Z,1.60
2023-03-08T02:59:58.848Z,1.50
2023-03-08T03:05:05.661Z,1.30
2023-03-08T03:10:13.490Z,1.20
2023-03-08T03:15:18.522Z,1.20
2023-03-08T03:20:25.921Z,1.30
2023-03-08T03:25:30.757Z,1.40
2023-03-08T03:30:34.425Z,1.50
2023-03-08T03:35:39.803Z,1.50
2023-03-08T03:40:46.321Z,1.60
2023-03-08T03:45:57.021Z,1.60
2023-03-08T03:51:04.474Z,1.70
2023-03-08T03:56:13.285Z,1.70
2023-03-08T04:01:21.017Z,1.70
2023-03-08T04:06:26.627Z,1.70
2023-03-08T04:11:35.559Z,1.60
2023-03-08T04:16:41.216Z,1.60
2023-03-08T04:21:52.385Z,1.70
2023-03-08T04:27:01.119Z,1.70
2023-03-08T04:32:05.458Z,1.70
2023-03-08T04:37:33.847Z,1.70
2023-03-08T04:42:43.448Z,1.70
2023-03-08T04:47:49.406Z,1.70
2023-03-08T04:52:54.158Z,1.80
2023-03-08T04:57:57.545Z,1.80
2023-03-08T05:03:02.047Z,1.80
2023-03-08T05:08:07.277Z,1.80
2023-03-08T05:13:12.520Z,1.90
2023-03-08T05:18:16.321Z,1.80
2023-03-08T05:23:20.985Z,1.80
2023-03-08T05:28:26.158Z,1.80
2023-03-08T05:33:29.700Z,1.90
2023-03-08T05:38:35.198Z,2.00
2023-03-08T05:43:42.104Z,1.90
2023-03-08T05:48:46.979Z,1.80
2023-03-08T05:53:54.715Z,1.90
2023-03-08T05:58:58.150Z,1.90
2023-03-08T06:04:03.497Z,2.00
2023-03-08T06:09:12.175Z,1.90
2023-03-08T06:14:17.917Z,2.00
2023-03-08T06:19:21.348Z,2.10
2023-03-08T06:24:28.843Z,2.20
2023-03-08T06:29:34.769Z,2.30
2023-03-08T06:34:39.323Z,2.40
2023-03-08T06:39:44.325Z,2.50
2023-03-08T06:44:48.503Z,2.60
2023-03-08T06:49:53.569Z,2.80
2023-03-08T06:54:58.807Z,2.90
2023-03-08T07:00:02.245Z,3.20
2023-03-08T07:05:06.048Z,3.10
2023-03-08T07:10:14.776Z,3.30
2023-03-08T07:15:20.377Z,3.50
2023-03-08T07:20:24.636Z,3.60
2023-03-08T07:25:29.633Z,3.80
2023-03-08T07:30:33.151Z,4.00
2023-03-08T07:35:38.422Z,4.20
2023-03-08T07:40:44.581Z,4.40
2023-03-08T07:45:47.852Z,4.70
2023-03-08T07:50:51.159Z,4.90
2023-03-08T07:55:55.816Z,5.00
2023-03-08T08:00:59.138Z,5.00
2023-03-08T08:06:04.287Z,5.10
2023-03-08T08:11:22.753Z,5.10
2023-03-08T08:16:26.413Z,6.60
2023-03-08T08:21:29.680Z,5.40
2023-03-08T08:26:34.310Z,5.50
2023-03-08T08:31:37.649Z,5.60
2023-03-08T08:36:40.970Z,5.50
2023-03-08T08:41:45.764Z,5.50
2023-03-08T08:46:49.016Z,5.70
2023-03-08T08:51:53.399Z,5.80
2023-03-08T08:56:58.078Z,5.80
2023-03-08T09:02:01.509Z,5.80
2023-03-08T09:07:07.244Z,5.60
2023-03-08T09:12:11.963Z,5.60
2023-03-08T09:17:15.291Z,5.80
2023-03-08T09:22:19.528Z,5.60
2023-03-08T09:27:24.214Z,5.20
2023-03-08T09:32:27.695Z,4.90
2023-03-08T09:37:30.999Z,4.70
2023-03-08T09:42:35.736Z,4.40
2023-03-08T09:47:46.592Z,4.20
2023-03-08T09:52:54.664Z,4.20
2023-03-08T09:58:03.208Z,4.10
2023-03-08T10:03:41.601Z,4.00
2023-03-08T10:08:50.878Z,4.10
2023-03-08T10:13:58.023Z,4.00
2023-03-08T10:19:06.283Z,3.90
2023-03-08T10:24:16.946Z,3.80
2023-03-08T10:29:21.821Z,3.70
2023-03-08T10:34:32.139Z,3.60
2023-03-08T10:39:37.135Z,3.50
2023-03-08T10:44:46.847Z,3.60
2023-03-08T10:49:51.584Z,3.70
2023-03-08T10:55:06.731Z,3.90
2023-03-08T11:00:31.966Z,3.90
2023-03-08T11:05:35.219Z,4.00
2023-03-08T11:10:38.978Z,3.90
2023-03-08T11:15:52.752Z,4.00
2023-03-08T11:21:03.269Z,3.90
2023-03-08T11:26:13.543Z,3.70
2023-03-08T11:31:27.106Z,3.70
2023-03-08T11:36:37.336Z,3.60
2023-03-08T11:41:47.232Z,3.60
2023-03-08T11:47:07.479Z,3.40
2023-03-08T11:52:22.781Z,3.50
2023-03-08T11:57:30.013Z,3.40
2023-03-08T12:02:39.934Z,3.30
2023-03-08T12:07:48.101Z,3.40
2023-03-08T12:12:55.952Z,3.30
2023-03-08T12:18:10.272Z,3.40
2023-03-08T12:23:22.816Z,3.30
2023-03-08T12:28:31.526Z,3.40
2023-03-08T12:33:36.585Z,3.30
2023-03-08T12:38:42.551Z,3.20
2023-03-08T12:43:45.963Z,3.20
2023-03-08T12:48:52.280Z,3.30
2023-03-08T12:54:01.768Z,3.20
2023-03-08T12:59:30.162Z,3.40
2023-03-08T13:04:41.535Z,3.50
2023-03-08T13:09:54.152Z,3.50
2023-03-08T13:15:03.131Z,3.30
2023-03-08T13:20:17.230Z,3.30
2023-03-08T13:25:45.556Z,3.20
2023-03-08T13:30:52.311Z,3.40
2023-03-08T13:35:58.906Z,3.50
2023-03-08T13:41:02.610Z,3.50
2023-03-08T13:46:11.978Z,3.50
2023-03-08T13:51:19.096Z,3.50
2023-03-08T13:56:25.899Z,3.30
2023-03-08T14:01:29.232Z,3.30
2023-03-08T14:06:36.711Z,3.50
2023-03-08T14:11:42.434Z,3.40
2023-03-08T14:16:46.498Z,3.30
2023-03-08T14:21:53.296Z,3.50
2023-03-08T14:27:01.393Z,3.60
2023-03-08T14:32:22.505Z,3.50
2023-03-08T14:37:29.178Z,3.50
2023-03-08T14:42:37.212Z,3.50
2023-03-08T14:47:51.118Z,3.50
2023-03-08T14:52:57.638Z,3.50
2023-03-08T14:58:03.367Z,3.40
2023-03-08T15:03:06.708Z,3.40
2023-03-08T15:08:13.365Z,3.40
2023-03-08T15:13:18.561Z,3.10
2023-03-08T15:18:21.876Z,3.00
2023-03-08T15:23:28.062Z,2.90
2023-03-08T15:28:31.399Z,2.90
2023-03-08T15:33:34.564Z,2.80
2023-03-08T15:38:40.001Z,2.80
2023-03-08T15:43:43.782Z,2.90
2023-03-08T15:48:46.983Z,2.90
2023-03-08T15:53:51.797Z,3.10
2023-03-08T15:58:56.713Z,3.00
2023-03-08T16:04:00.010Z,3.00
2023-03-08T16:09:05.068Z,2.90
2023-03-08T16:14:08.395Z,3.00
2023-03-08T16:19:12.041Z,2.90
2023-03-08T16:24:16.889Z,2.80
2023-03-08T16:29:20.405Z,2.80
2023-03-08T16:34:23.655Z,2.80
2023-03-08T16:39:28.362Z,2.80
2023-03-08T16:44:32.187Z,2.70
2023-03-08T16:49:36.769Z,2.70
2023-03-08T16:54:41.542Z,2.70
2023-03-08T16:59:45.509Z,2.70
2023-03-08T17:04:50.070Z,2.60
2023-03-08T17:09:55.380Z,2.60
2023-03-08T17:14:58.733Z,2.50
2023-03-08T17:20:01.975Z,2.50
2023-03-08T17:25:07.731Z,2.50
2023-03-08T17:30:14.640Z,2.50
2023-03-08T17:35:18.381Z,2.50
2023-03-08T17:40:23.517Z,2.60
2023-03-08T17:45:29.164Z,2.50
2023-03-08T17:50:34.733Z,2.50
2023-03-08T17:55:41.285Z,2.30
2023-03-08T18:00:44.768Z,2.30
2023-03-08T18:05:49.775Z,2.30
2023-03-08T18:10:54.789Z,2.30
2023-03-08T18:15:58.484Z,2.30
2023-03-08T18:21:12.522Z,2.30
2023-03-08T18:26:19.715Z,2.20
2023-03-08T18:31:26.373Z,2.30
2023-03-08T18:36:29.884Z,2.30
2023-03-08T18:41:35.397Z,2.20
2023-03-08T18:46:38.473Z,2.20
2023-03-08T18:51:43.186Z,2.10
2023-03-08T18:56:49.599Z,2.20
2023-03-08T19:01:54.198Z,2.20
2023-03-08T19:06:58.178Z,2.20
2023-03-08T19:12:03.501Z,2.20
2023-03-08T19:17:06.990Z,2.10
2023-03-08T19:22:11.952Z,2.10
2023-03-08T19:27:16.560Z,2.10
2023-03-08T19:32:20.089Z,2.10
2023-03-08T19:37:23.428Z,2.00
2023-03-08T19:42:28.114Z,1.90
2023-03-08T19:47:31.525Z,1.90
2023-03-08T19:52:34.739Z,2.00
2023-03-08T19:57:39.364Z,1.90
2023-03-08T20:02:45.870Z,1.90
2023-03-08T20:07:49.223Z,1.80
2023-03-08T20:12:53.826Z,1.90
2023-03-08T20:17:57.276Z,1.90
2023-03-08T20:23:00.696Z,1.90
2023-03-08T20:28:05.535Z,1.90
2023-03-08T20:33:08.769Z,1.90
2023-03-08T20:38:12.622Z,1.90
2023-03-08T20:43:17.219Z,2.10
2023-03-08T20:48:20.545Z,2.10
2023-03-08T20:53:24.203Z,2.10
2023-03-08T20:58:28.820Z,2.10
2023-03-08T21:03:32.410Z,2.00
2023-03-08T21:08:35.760Z,1.90
2023-03-08T21:13:40.728Z,1.90
2023-03-08T21:18:45.904Z,1.90
2023-03-08T21:23:50.275Z,1.90
2023-03-08T21:28:57.035Z,1.90
2023-03-08T21:34:02.582Z,2.00
2023-03-08T21:39:06.336Z,2.00
2023-03-08T21:44:14.237Z,2.00
2023-03-08T21:49:19.392Z,2.00
2023-03-08T21:54:23.945Z,2.00
2023-03-08T21:59:29.316Z,2.00
2023-03-08T22:04:33.071Z,2.00
2023-03-08T22:09:36.620Z,1.90
2023-03-08T22:14:41.273Z,1.90
2023-03-08T22:19:44.582Z,1.90
2023-03-08T22:24:47.946Z,2.00
2023-03-08T22:29:52.547Z,2.00
2023-03-08T22:34:55.865Z,2.00
2023-03-08T22:39:59.362Z,1.90
2023-03-08T22:45:04.601Z,1.90
2023-03-08T22:50:08.774Z,1.90
2023-03-08T22:55:13.141Z,2.00
2023-03-08T23:00:19.071Z,1.90
2023-03-08T23:05:22.614Z,1.90
2023-03-08T23:10:26.073Z,2.00
2023-03-08T23:15:31.231Z,2.00
2023-03-08T23:20:34.649Z,2.00
2023-03-08T23:25:40.663Z,2.00
2023-03-08T23:30:45.420Z,2.00
2023-03-08T23:35:50.204Z,1.90
2023-03-08T23:40:53.592Z,1.90
2023-03-08T23:45:58.340Z,1.80
2023-03-08T23:51:04.162Z,1.80
2023-03-08T23:56:15.392Z,1.80
